This is the latest recevied weather packets stored in our database for station/object KI8L. If no packets are shown the sender has not sent any weather packets the latest 10 day(s).
| Time | Temp. | Humidity | Pressure | Rain* | Wind** | Luminosity | Snow |
|---|---|---|---|---|---|---|---|
| 1778048181 | 7.22° C | 99% | 1010.1 hPa | 1.27 mm | - | 0 W/m² | - |
| 1778047880 | 7.22° C | 99% | 1010 hPa | 1.27 mm | - | 0 W/m² | - |
| 1778047578 | 7.22° C | 99% | 1010.1 hPa | 0 mm | - | 0 W/m² | - |
| 1778047274 | 7.22° C | 99% | 1010.1 hPa | 1.78 mm | - | 0 W/m² | - |
| 1778046972 | 7.22° C | 99% | 1010.1 hPa | 1.78 mm | - | 0 W/m² | - |
| 1778046668 | 7.22° C | 99% | 1010.2 hPa | 1.78 mm | - | 0 W/m² | - |
| 1778046365 | 7.22° C | 99% | 1010.3 hPa | 3.05 mm | - | 0 W/m² | - |
| 1778046061 | 7.22° C | 99% | 1010.3 hPa | 1.27 mm | - | 0 W/m² | - |
| 1778045759 | 7.22° C | 99% | 1010.4 hPa | 3.05 mm | - | 0 W/m² | - |
| 1778045457 | 7.78° C | 99% | 1010.4 hPa | 3.05 mm | - | 0 W/m² | - |
| 1778045155 | 8.33° C | 99% | 1010.5 hPa | 3.05 mm | - | 0 W/m² | - |
| 1778044853 | 8.89° C | 99% | 1010.2 hPa | 4.83 mm | - | 0 W/m² | - |
| 1778044549 | 8.89° C | 99% | 1010.2 hPa | 4.32 mm | - | 0 W/m² | - |
| 1778044246 | 8.89° C | 99% | 1010.5 hPa | 1.27 mm | - | 0 W/m² | - |
| 1778043944 | 8.89° C | 99% | 1010.3 hPa | 1.78 mm | - | 0 W/m² | - |
| 1778043641 | 8.89° C | 99% | 1010.4 hPa | 1.78 mm | - | 0 W/m² | - |
| 1778043337 | 8.89° C | 99% | 1010.4 hPa | 0 mm | - | 0 W/m² | - |
| 1778043034 | 8.89° C | 99% | 1010.3 hPa | 1.27 mm | - | 0 W/m² | - |
| 1778042732 | 8.89° C | 99% | 1010.4 hPa | 1.27 mm | - | 0 W/m² | - |
| 1778042429 | 8.89° C | 99% | 1010.3 hPa | 1.78 mm | - | 0 W/m² | - |
| 1778042126 | 8.89° C | 99% | 1010.3 hPa | 1.78 mm | - | 0 W/m² | - |
| 1778041825 | 8.89° C | 99% | 1010.5 hPa | 1.78 mm | - | 0 W/m² | - |
| 1778041523 | 8.89° C | 99% | 1010.3 hPa | 1.78 mm | - | 0 W/m² | - |
| 1778041221 | 8.89° C | 99% | 1010.5 hPa | 0 mm | - | 0 W/m² | - |
| 1778040919 | 8.89° C | 99% | 1010.4 hPa | 1.27 mm | - | 0 W/m² | - |
* Rain latest hour (hover to see other rain measurements)
** Current wind speed in m/s (hover to see current wind gust speed)